Missouri City, Texas
Current Conditions -  °F | °C
As of 1:53 AM on Saturday 20 Dec 2014 (Local Time) from KSGR Reporting Station
Overcast Overcast  
Wind Chill: 53°   Ceiling: 1200
Heat Index: 53°   Visibility: 10mi
Dew Point: 50°   Wind: 9mph
Humidity: 89%   Direction: 360°N
Pressure: 30.13"   Gusts: NA
Location:  29.61°N, 95.53°W
Report Text: KSGR 200753Z AUTO 36008KT 10SM OVC012 12/10 A3013 RMK AO2 SLP205 T01170100
Loading
Personal Weather Stations






























Interactive Weather Map New forecast layout! Learn more

10-Day Weather Forecast

Advertisements
Track Severe Weather on mobile